createdAt,value
2019-04-06T00:00:03.156Z,39.17
2019-04-06T00:02:33.251Z,39.18
2019-04-06T00:05:01.658Z,39.07
2019-04-06T00:07:30.089Z,39.23
2019-04-06T00:09:58.623Z,39.14
2019-04-06T00:12:27.074Z,39.17
2019-04-06T00:14:55.486Z,39.19
2019-04-06T00:17:23.961Z,39.16
2019-04-06T00:19:52.432Z,39.14
2019-04-06T00:22:20.961Z,39.09
2019-04-06T00:24:49.400Z,39.08
2019-04-06T00:27:17.811Z,39.10
2019-04-06T00:29:46.338Z,39.19
2019-04-06T00:32:21.920Z,39.13
2019-04-06T00:34:50.390Z,39.01
2019-04-06T00:37:18.826Z,39.12
2019-04-06T00:39:47.247Z,39.08
2019-04-06T00:42:15.672Z,39.17
2019-04-06T00:44:44.154Z,39.11
2019-04-06T00:47:12.594Z,39.13
2019-04-06T00:49:41.001Z,39.07
2019-04-06T00:52:09.451Z,39.10
2019-04-06T00:54:37.860Z,39.04
2019-04-06T00:57:06.270Z,39.09
2019-04-06T00:59:34.678Z,39.08
2019-04-06T01:02:03.263Z,39.05
2019-04-06T01:04:31.683Z,39.04
2019-04-06T01:07:00.135Z,39.13
2019-04-06T01:09:28.538Z,39.08
2019-04-06T01:11:57.006Z,39.07
2019-04-06T01:14:25.444Z,39.09
2019-04-06T01:16:53.962Z,39.02
2019-04-06T01:19:22.342Z,39.08
2019-04-06T01:21:50.794Z,39.06
2019-04-06T01:24:19.198Z,39.11
2019-04-06T01:26:47.668Z,39.06
2019-04-06T01:29:16.080Z,39.12
2019-04-06T01:31:44.543Z,39.12
2019-04-06T01:34:12.976Z,38.97
2019-04-06T01:36:41.534Z,39.08
2019-04-06T01:39:09.942Z,39.05
2019-04-06T01:41:38.354Z,39.07
2019-04-06T01:44:06.761Z,39.06
2019-04-06T01:46:35.169Z,39.04
2019-04-06T01:49:03.575Z,39.01
2019-04-06T01:51:31.985Z,39.01
2019-04-06T01:54:00.400Z,39.01
2019-04-06T01:56:28.879Z,38.96
2019-04-06T01:58:57.362Z,39.04
2019-04-06T02:01:27.431Z,39.03
2019-04-06T02:03:55.899Z,39.05
2019-04-06T02:06:24.303Z,39.10
2019-04-06T02:08:52.777Z,39.06
2019-04-06T02:11:21.253Z,39.01
2019-04-06T02:13:49.665Z,38.99
2019-04-06T02:16:18.092Z,38.98
2019-04-06T02:18:46.602Z,38.98
2019-04-06T02:21:15.009Z,39.07
2019-04-06T02:23:43.421Z,39.01
2019-04-06T02:26:11.819Z,38.95
2019-04-06T02:28:40.368Z,39.04
2019-04-06T02:31:27.098Z,39.00
2019-04-06T02:33:59.852Z,38.99
2019-04-06T02:36:29.942Z,39.07
2019-04-06T02:38:59.998Z,38.99
2019-04-06T02:41:48.393Z,38.97
2019-04-06T02:44:16.834Z,39.01
2019-04-06T02:46:45.310Z,38.96
2019-04-06T02:49:14.046Z,39.03
2019-04-06T02:51:42.471Z,38.98
2019-04-06T02:54:10.904Z,39.03
2019-04-06T02:56:46.253Z,38.96
2019-04-06T02:59:09.505Z,39.10
2019-04-06T03:01:37.905Z,39.06
2019-04-06T03:04:06.343Z,39.13
2019-04-06T03:06:34.780Z,39.05
2019-04-06T03:09:04.896Z,39.07
2019-04-06T03:11:33.306Z,39.05
2019-04-06T03:14:01.722Z,39.07
2019-04-06T03:16:30.742Z,39.05
2019-04-06T03:18:59.440Z,39.05
2019-04-06T03:21:27.845Z,39.05
2019-04-06T03:23:56.261Z,39.11
2019-04-06T03:26:24.699Z,39.08
2019-04-06T03:28:53.110Z,39.18
2019-04-06T03:31:25.539Z,39.10
2019-04-06T03:33:51.711Z,39.07
2019-04-06T03:36:20.102Z,39.19
2019-04-06T03:38:48.510Z,39.17
2019-04-06T03:41:16.982Z,39.18
2019-04-06T03:43:45.399Z,39.25
2019-04-06T03:46:13.804Z,39.25
2019-04-06T03:48:42.240Z,39.20
2019-04-06T03:51:10.808Z,39.15
2019-04-06T03:53:39.269Z,39.19
2019-04-06T03:56:07.683Z,39.15
2019-04-06T03:58:36.119Z,39.13
2019-04-06T04:01:04.572Z,39.16
2019-04-06T04:03:32.950Z,39.15
2019-04-06T04:06:01.507Z,39.12
2019-04-06T04:08:29.944Z,39.22
2019-04-06T04:10:58.406Z,39.13
2019-04-06T04:13:26.871Z,39.09
2019-04-06T04:15:57.190Z,39.15
2019-04-06T04:18:25.656Z,39.15
2019-04-06T04:20:54.277Z,39.17
2019-04-06T04:23:22.701Z,39.09
2019-04-06T04:25:51.122Z,39.14
2019-04-06T04:28:19.689Z,39.08
2019-04-06T04:30:48.119Z,39.03
2019-04-06T04:33:16.546Z,39.15
2019-04-06T04:35:44.925Z,39.07
2019-04-06T04:38:13.341Z,39.03
2019-04-06T04:40:41.747Z,39.09
2019-04-06T04:43:10.193Z,39.08
2019-04-06T04:45:38.702Z,39.14
2019-04-06T04:48:07.105Z,39.08
2019-04-06T04:50:35.695Z,39.10
2019-04-06T04:53:04.158Z,39.08
2019-04-06T04:55:32.546Z,39.09
2019-04-06T04:58:00.970Z,39.05
2019-04-06T05:00:29.349Z,39.06
2019-04-06T05:02:57.816Z,39.06
2019-04-06T05:05:26.423Z,39.09
2019-04-06T05:07:54.937Z,39.13
2019-04-06T05:10:23.600Z,39.11
2019-04-06T05:12:52.192Z,39.06
2019-04-06T05:15:30.021Z,39.01
2019-04-06T05:17:58.458Z,39.02
2019-04-06T05:20:27.048Z,39.08
2019-04-06T05:22:55.453Z,39.04
2019-04-06T05:25:24.012Z,39.03
2019-04-06T05:27:53.153Z,39.01
2019-04-06T05:30:21.909Z,39.00
2019-04-06T05:32:50.385Z,38.93
2019-04-06T05:35:18.861Z,38.95
2019-04-06T05:37:47.270Z,39.03
2019-04-06T05:40:15.798Z,39.00
2019-04-06T05:42:44.237Z,39.03
2019-04-06T05:45:12.745Z,38.88
2019-04-06T05:47:42.550Z,38.95
2019-04-06T05:50:11.000Z,38.97
2019-04-06T05:52:39.408Z,38.98
2019-04-06T05:55:07.850Z,38.99
2019-04-06T05:57:37.556Z,39.04
2019-04-06T06:00:10.482Z,39.12
2019-04-06T06:02:41.333Z,39.16
2019-04-06T06:05:08.577Z,39.40
2019-04-06T06:07:38.437Z,39.53
2019-04-06T06:10:07.838Z,39.65
2019-04-06T06:12:36.260Z,39.74
2019-04-06T06:15:06.747Z,39.83
2019-04-06T06:17:35.320Z,39.93
2019-04-06T06:20:05.219Z,39.80
2019-04-06T06:22:33.626Z,39.79
2019-04-06T06:25:02.076Z,39.61
2019-04-06T06:27:30.469Z,39.61
2019-04-06T06:29:58.940Z,39.61
2019-04-06T06:32:27.351Z,39.50
2019-04-06T06:34:56.044Z,39.47
2019-04-06T06:37:24.486Z,39.43
2019-04-06T06:39:52.925Z,39.37
2019-04-06T06:42:21.327Z,39.25
2019-04-06T06:44:49.924Z,39.24
2019-04-06T06:47:18.329Z,39.15
2019-04-06T06:49:46.807Z,39.14
2019-04-06T06:52:15.216Z,39.03
2019-04-06T06:54:43.627Z,39.18
2019-04-06T06:57:12.100Z,39.17
2019-04-06T06:59:40.512Z,39.13
2019-04-06T07:02:08.923Z,39.23
2019-04-06T07:04:37.328Z,39.20
2019-04-06T07:07:05.742Z,39.08
2019-04-06T07:09:34.187Z,39.10
2019-04-06T07:12:02.551Z,39.08
2019-04-06T07:14:30.955Z,39.04
2019-04-06T07:16:59.391Z,38.97
2019-04-06T07:19:27.799Z,38.95
2019-04-06T07:21:57.870Z,38.89
2019-04-06T07:24:26.350Z,38.69
2019-04-06T07:26:54.842Z,38.57
2019-04-06T07:29:23.430Z,38.57
2019-04-06T07:31:51.843Z,38.34
2019-04-06T07:34:20.248Z,38.22
2019-04-06T07:36:48.940Z,38.01
2019-04-06T07:39:17.358Z,37.87
2019-04-06T07:41:45.859Z,37.76
2019-04-06T07:44:14.453Z,37.67
2019-04-06T07:46:42.963Z,37.63
2019-04-06T07:49:11.370Z,37.80
2019-04-06T07:51:39.771Z,38.07
2019-04-06T07:54:08.348Z,38.19
2019-04-06T07:56:36.818Z,38.33
2019-04-06T07:59:05.235Z,38.32
2019-04-06T08:01:33.782Z,38.32
2019-04-06T08:04:02.402Z,38.29
2019-04-06T08:06:30.910Z,38.33
2019-04-06T08:08:59.317Z,38.30
2019-04-06T08:11:27.909Z,38.31
2019-04-06T08:13:56.315Z,38.24
2019-04-06T08:16:24.870Z,38.26
2019-04-06T08:18:53.276Z,38.20
2019-04-06T08:21:21.727Z,38.19
2019-04-06T08:23:50.134Z,38.13
2019-04-06T08:26:18.582Z,38.16
2019-04-06T08:28:46.999Z,38.10
2019-04-06T08:31:15.464Z,38.09
2019-04-06T08:33:44.042Z,38.07
2019-04-06T08:36:12.460Z,38.06
2019-04-06T08:38:40.957Z,38.01
2019-04-06T08:41:09.401Z,37.95
2019-04-06T08:43:37.938Z,37.90
2019-04-06T08:46:06.444Z,37.93
2019-04-06T08:48:34.886Z,37.89
2019-04-06T08:51:03.327Z,37.84
2019-04-06T08:53:31.746Z,37.82
2019-04-06T08:56:00.187Z,37.86
2019-04-06T08:58:28.603Z,37.83
2019-04-06T09:00:57.116Z,37.86
2019-04-06T09:03:25.586Z,37.84
2019-04-06T09:05:54.031Z,37.80
2019-04-06T09:08:22.500Z,37.80
2019-04-06T09:10:52.274Z,37.84
2019-04-06T09:13:21.018Z,37.77
2019-04-06T09:15:49.549Z,37.68
2019-04-06T09:18:17.930Z,37.65
2019-04-06T09:20:47.077Z,37.63
2019-04-06T09:23:15.552Z,37.58
2019-04-06T09:25:43.956Z,37.54
2019-04-06T09:28:12.363Z,37.46
2019-04-06T09:30:40.930Z,37.43
2019-04-06T09:33:09.353Z,37.32
2019-04-06T09:35:37.916Z,37.26
2019-04-06T09:38:07.983Z,37.21
2019-04-06T09:40:36.391Z,37.16
2019-04-06T09:43:04.866Z,37.19
2019-04-06T09:45:34.928Z,37.09
2019-04-06T09:48:07.965Z,37.01
2019-04-06T09:50:54.226Z,36.91
2019-04-06T09:53:24.272Z,36.89
2019-04-06T09:55:57.365Z,36.77
2019-04-06T09:58:33.546Z,36.87
2019-04-06T10:01:03.691Z,36.75
2019-04-06T10:03:39.179Z,36.70
2019-04-06T10:06:18.026Z,36.69
2019-04-06T10:08:56.858Z,36.69
2019-04-06T10:11:32.957Z,36.64
2019-04-06T10:14:03.037Z,36.67
2019-04-06T10:16:39.311Z,36.65
2019-04-06T10:19:12.191Z,36.64
2019-04-06T10:22:00.764Z,36.72
2019-04-06T10:24:47.034Z,36.54
2019-04-06T10:27:19.706Z,36.58
2019-04-06T10:29:50.295Z,36.62
2019-04-06T10:32:23.552Z,36.46
2019-04-06T10:35:02.880Z,36.55
2019-04-06T10:37:32.939Z,36.52
2019-04-06T10:40:11.646Z,36.35
2019-04-06T10:42:54.080Z,36.39
2019-04-06T10:45:24.237Z,36.09
2019-04-06T10:47:54.286Z,36.12
2019-04-06T10:50:30.344Z,36.16
2019-04-06T10:53:00.385Z,36.06
2019-04-06T10:55:33.144Z,35.98
2019-04-06T10:58:19.254Z,35.95
2019-04-06T11:00:51.866Z,35.95
2019-04-06T11:03:24.704Z,35.87
2019-04-06T11:06:10.728Z,35.82
2019-04-06T11:08:40.772Z,35.88
2019-04-06T11:11:22.804Z,35.77
2019-04-06T11:14:10.865Z,35.60
2019-04-06T11:16:52.613Z,35.43
2019-04-06T11:19:31.682Z,35.41
2019-04-06T11:22:01.718Z,35.35
2019-04-06T11:24:31.771Z,35.41
2019-04-06T11:27:04.798Z,35.28
2019-04-06T11:29:34.988Z,35.26
2019-04-06T11:32:07.772Z,35.40
2019-04-06T11:34:46.783Z,35.25
2019-04-06T11:37:33.366Z,35.27
2019-04-06T11:40:15.538Z,35.27
2019-04-06T11:42:51.316Z,35.13
2019-04-06T11:45:39.583Z,35.06
2019-04-06T11:48:25.803Z,35.07
2019-04-06T11:51:11.989Z,35.17
2019-04-06T11:53:42.016Z,35.00
2019-04-06T11:56:30.312Z,34.95
2019-04-06T11:59:16.923Z,34.98
2019-04-06T12:01:52.724Z,35.00
2019-04-06T12:04:31.394Z,35.01
2019-04-06T12:07:04.338Z,34.97
2019-04-06T12:09:34.737Z,35.00
2019-04-06T12:12:09.622Z,34.97
2019-04-06T12:14:51.893Z,35.01
2019-04-06T12:17:22.211Z,34.95
2019-04-06T12:19:52.360Z,34.96
2019-04-06T12:22:28.372Z,34.66
2019-04-06T12:25:04.630Z,34.29
2019-04-06T12:27:50.899Z,33.39
2019-04-06T12:30:36.092Z,32.72
2019-04-06T12:33:01.679Z,32.87
2019-04-06T12:35:34.884Z,32.83
2019-04-06T12:38:21.290Z,33.30
2019-04-06T12:41:07.591Z,33.43
2019-04-06T12:43:43.722Z,33.53
2019-04-06T12:46:16.451Z,33.92
2019-04-06T12:48:53.218Z,33.63
2019-04-06T12:51:23.579Z,33.42
2019-04-06T12:54:05.332Z,33.51
2019-04-06T12:56:38.070Z,33.44
2019-04-06T12:59:14.149Z,33.43
2019-04-06T13:01:44.212Z,33.54
2019-04-06T13:04:22.866Z,33.70
2019-04-06T13:06:55.769Z,33.68
2019-04-06T13:09:26.271Z,33.83
2019-04-06T13:12:05.740Z,34.05
2019-04-06T13:14:51.111Z,34.09
2019-04-06T13:17:21.192Z,34.22
2019-04-06T13:19:51.390Z,34.29
2019-04-06T13:22:27.728Z,34.42
2019-04-06T13:24:57.789Z,34.76
2019-04-06T13:27:46.280Z,35.04
2019-04-06T13:30:28.698Z,35.18
2019-04-06T13:32:58.945Z,35.25
2019-04-06T13:35:29.017Z,35.13
2019-04-06T13:38:15.217Z,35.14
2019-04-06T13:41:01.429Z,35.28
2019-04-06T13:43:37.503Z,35.40
2019-04-06T13:46:22.608Z,35.58
2019-04-06T13:48:55.478Z,35.62
2019-04-06T13:51:41.947Z,35.56
2019-04-06T13:54:28.998Z,35.60
2019-04-06T13:57:05.072Z,35.66
2019-04-06T13:59:51.614Z,35.76
2019-04-06T14:02:37.804Z,35.81
2019-04-06T14:05:08.642Z,35.96
2019-04-06T14:07:56.644Z,35.95
2019-04-06T14:10:40.485Z,36.05
2019-04-06T14:13:10.538Z,36.08
2019-04-06T14:15:46.594Z,36.16
2019-04-06T14:18:25.538Z,36.23
2019-04-06T14:21:01.642Z,36.29
2019-04-06T14:23:40.747Z,36.32
2019-04-06T14:26:11.112Z,36.38
2019-04-06T14:28:43.956Z,36.41
2019-04-06T14:31:27.391Z,36.48
2019-04-06T14:33:57.267Z,36.53
2019-04-06T14:36:27.430Z,36.56
2019-04-06T14:39:03.760Z,36.60
2019-04-06T14:41:50.158Z,36.64
2019-04-06T14:44:35.340Z,36.68
2019-04-06T14:47:08.111Z,36.74
2019-04-06T14:49:41.290Z,36.79
2019-04-06T14:52:17.554Z,36.81
2019-04-06T14:54:56.617Z,36.84
2019-04-06T14:57:29.675Z,36.87
2019-04-06T15:00:16.338Z,36.90
2019-04-06T15:02:52.571Z,36.93
2019-04-06T15:05:22.695Z,36.99
2019-04-06T15:07:59.000Z,37.05
2019-04-06T15:10:32.026Z,37.06
2019-04-06T15:13:02.081Z,37.08
2019-04-06T15:15:32.135Z,37.14
2019-04-06T15:18:02.344Z,37.17
2019-04-06T15:20:38.128Z,37.21
2019-04-06T15:23:24.814Z,37.26
2019-04-06T15:26:10.084Z,37.31
2019-04-06T15:28:40.159Z,37.39
2019-04-06T15:31:13.358Z,37.47
2019-04-06T15:33:43.474Z,37.54
2019-04-06T15:36:22.983Z,37.61
2019-04-06T15:39:09.571Z,37.64
2019-04-06T15:41:54.349Z,38.06
2019-04-06T15:44:14.526Z,38.01
2019-04-06T15:47:01.033Z,37.96
2019-04-06T15:49:37.415Z,38.02
2019-04-06T15:52:14.245Z,38.00
2019-04-06T15:54:59.830Z,37.97
2019-04-06T15:57:35.995Z,37.99
2019-04-06T16:00:08.458Z,37.99
2019-04-06T16:02:56.751Z,37.95
2019-04-06T16:05:29.689Z,37.95
2019-04-06T16:07:59.748Z,37.93
2019-04-06T16:10:29.808Z,37.94
2019-04-06T16:13:00.243Z,37.95
2019-04-06T16:15:39.532Z,37.94
2019-04-06T16:18:12.601Z,37.93
2019-04-06T16:20:59.622Z,37.97
2019-04-06T16:23:32.445Z,37.95
2019-04-06T16:26:11.112Z,37.95
2019-04-06T16:28:49.685Z,37.95
2019-04-06T16:31:22.792Z,37.96
2019-04-06T16:34:09.199Z,37.96
2019-04-06T16:36:51.447Z,38.03
2019-04-06T16:39:21.729Z,38.03
2019-04-06T16:41:57.836Z,38.03
2019-04-06T16:44:27.982Z,38.06
2019-04-06T16:47:13.662Z,38.06
2019-04-06T16:49:49.706Z,38.08
2019-04-06T16:52:28.983Z,38.08
2019-04-06T16:55:15.044Z,38.09
2019-04-06T16:57:45.145Z,38.12
2019-04-06T17:00:30.407Z,38.14
2019-04-06T17:03:03.423Z,38.16
2019-04-06T17:05:33.968Z,38.19
2019-04-06T17:08:20.408Z,38.18
2019-04-06T17:10:53.014Z,38.19
2019-04-06T17:13:37.833Z,38.20
2019-04-06T17:16:24.511Z,38.23
2019-04-06T17:19:00.655Z,38.20
2019-04-06T17:21:49.051Z,38.20
2019-04-06T17:24:19.109Z,38.20
2019-04-06T17:26:51.992Z,38.24
2019-04-06T17:29:22.070Z,38.23
2019-04-06T17:31:52.618Z,38.24
2019-04-06T17:34:22.793Z,38.22
2019-04-06T17:36:52.845Z,38.32
2019-04-06T17:39:23.151Z,38.37
2019-04-06T17:41:53.300Z,38.40
2019-04-06T17:44:23.390Z,38.36
2019-04-06T17:47:08.620Z,38.37
2019-04-06T17:49:41.845Z,38.41
2019-04-06T17:52:24.837Z,38.43
2019-04-06T17:54:54.895Z,38.52
2019-04-06T17:57:24.945Z,38.57
2019-04-06T18:00:11.342Z,38.56
2019-04-06T18:02:49.480Z,38.74
2019-04-06T18:05:23.524Z,38.76
2019-04-06T18:07:59.388Z,38.77
2019-04-06T18:10:45.810Z,38.80
2019-04-06T18:13:22.010Z,38.85
2019-04-06T18:15:51.219Z,38.89
2019-04-06T18:18:20.016Z,38.87
2019-04-06T18:20:48.449Z,38.85
2019-04-06T18:23:18.759Z,38.82
2019-04-06T18:25:47.290Z,38.76
2019-04-06T18:28:16.026Z,38.72
2019-04-06T18:30:46.119Z,38.71
2019-04-06T18:33:16.213Z,38.65
2019-04-06T18:35:44.947Z,38.65
2019-04-06T18:38:17.669Z,38.62
2019-04-06T18:40:46.124Z,38.61
2019-04-06T18:43:14.528Z,38.61
2019-04-06T18:45:43.296Z,38.56
2019-04-06T18:48:11.796Z,38.64
2019-04-06T18:50:40.636Z,38.75
2019-04-06T18:53:09.247Z,39.06
2019-04-06T18:55:37.929Z,39.03
2019-04-06T18:58:11.265Z,39.40
2019-04-06T19:00:36.485Z,39.45
2019-04-06T19:03:12.066Z,39.46
2019-04-06T19:05:35.223Z,39.64
2019-04-06T19:08:05.262Z,39.73
2019-04-06T19:10:33.900Z,39.88
2019-04-06T19:13:02.320Z,39.96
2019-04-06T19:15:30.736Z,39.89
2019-04-06T19:17:59.256Z,39.97
2019-04-06T19:20:29.275Z,40.10
2019-04-06T19:22:57.885Z,40.04
2019-04-06T19:25:26.316Z,40.24
2019-04-06T19:27:55.146Z,40.05
2019-04-06T19:30:23.826Z,40.02
2019-04-06T19:32:52.368Z,39.92
2019-04-06T19:35:20.906Z,39.88
2019-04-06T19:37:49.337Z,39.86
2019-04-06T19:40:18.136Z,39.79
2019-04-06T19:42:46.573Z,39.78
2019-04-06T19:45:15.110Z,39.78
2019-04-06T19:47:43.678Z,39.83
2019-04-06T19:50:12.172Z,40.00
2019-04-06T19:52:40.611Z,40.11
2019-04-06T19:55:09.113Z,40.11
2019-04-06T19:57:37.539Z,40.28
2019-04-06T20:00:06.812Z,40.30
2019-04-06T20:02:35.408Z,40.46
2019-04-06T20:05:06.007Z,40.55
2019-04-06T20:07:34.428Z,40.47
2019-04-06T20:10:02.927Z,40.65
2019-04-06T20:12:31.347Z,40.52
2019-04-06T20:14:59.806Z,40.50
2019-04-06T20:17:28.843Z,40.43
2019-04-06T20:19:57.526Z,40.51
2019-04-06T20:22:26.231Z,40.50
2019-04-06T20:24:54.661Z,40.61
2019-04-06T20:27:23.285Z,40.67
2019-04-06T20:29:51.908Z,40.54
2019-04-06T20:32:20.308Z,40.63
2019-04-06T20:34:49.299Z,40.70
2019-04-06T20:37:18.803Z,40.66
2019-04-06T20:39:47.331Z,40.84
2019-04-06T20:42:15.752Z,40.58
2019-04-06T20:44:44.161Z,40.58
2019-04-06T20:47:12.585Z,40.74
2019-04-06T20:49:41.587Z,40.59
2019-04-06T20:52:10.645Z,40.47
2019-04-06T20:54:39.543Z,40.30
2019-04-06T20:57:08.733Z,40.44
2019-04-06T20:59:37.311Z,40.42
2019-04-06T21:02:05.752Z,40.36
2019-04-06T21:04:34.191Z,40.24
2019-04-06T21:07:02.609Z,40.24
2019-04-06T21:09:31.756Z,40.28
2019-04-06T21:12:00.346Z,40.22
2019-04-06T21:14:28.727Z,40.24
2019-04-06T21:16:57.229Z,40.21
2019-04-06T21:19:26.045Z,40.22
2019-04-06T21:21:54.702Z,40.14
2019-04-06T21:24:23.500Z,40.18
2019-04-06T21:26:52.262Z,40.18
2019-04-06T21:29:21.732Z,40.22
2019-04-06T21:31:50.871Z,40.16
2019-04-06T21:34:19.438Z,40.21
2019-04-06T21:36:48.206Z,40.14
2019-04-06T21:39:16.734Z,40.13
2019-04-06T21:41:45.188Z,40.10
2019-04-06T21:44:13.585Z,40.14
2019-04-06T21:46:42.073Z,40.15
2019-04-06T21:49:10.478Z,40.08
2019-04-06T21:51:39.140Z,40.32
2019-04-06T21:54:07.848Z,40.21
2019-04-06T21:56:36.473Z,40.33
2019-04-06T21:59:05.367Z,40.26
2019-04-06T22:01:34.263Z,40.28
2019-04-06T22:04:03.204Z,40.41
2019-04-06T22:06:31.695Z,40.29
2019-04-06T22:09:00.390Z,40.30
2019-04-06T22:11:28.904Z,40.29
2019-04-06T22:13:57.862Z,40.19
2019-04-06T22:16:27.220Z,40.30
2019-04-06T22:18:55.663Z,40.35
2019-04-06T22:21:24.075Z,40.35
2019-04-06T22:23:52.490Z,40.30
2019-04-06T22:26:20.958Z,40.33
2019-04-06T22:28:49.391Z,40.26
2019-04-06T22:31:17.805Z,40.25
2019-04-06T22:33:46.327Z,40.21
2019-04-06T22:36:15.121Z,40.14
2019-04-06T22:38:43.624Z,40.29
2019-04-06T22:41:12.061Z,40.30
2019-04-06T22:43:41.168Z,40.39
2019-04-06T22:46:12.211Z,40.28
2019-04-06T22:48:40.370Z,40.27
2019-04-06T22:51:10.160Z,40.18
2019-04-06T22:53:38.685Z,40.31
2019-04-06T22:56:07.188Z,40.31
2019-04-06T22:58:35.769Z,40.32
2019-04-06T23:01:14.625Z,40.30
2019-04-06T23:03:57.155Z,40.32
2019-04-06T23:06:30.231Z,40.26
2019-04-06T23:08:58.641Z,40.31
2019-04-06T23:11:27.556Z,40.29
2019-04-06T23:13:56.325Z,40.31
2019-04-06T23:16:24.971Z,40.25
2019-04-06T23:18:53.750Z,40.37
2019-04-06T23:21:22.510Z,40.24
2019-04-06T23:23:50.922Z,40.24
2019-04-06T23:26:19.333Z,40.37
2019-04-06T23:28:47.746Z,40.21
2019-04-06T23:31:16.487Z,40.25
2019-04-06T23:33:45.063Z,40.36
2019-04-06T23:36:13.495Z,40.14
2019-04-06T23:38:41.904Z,40.32
2019-04-06T23:41:10.484Z,40.35
2019-04-06T23:43:38.915Z,40.21
2019-04-06T23:46:07.541Z,40.19
2019-04-06T23:48:36.442Z,40.29
2019-04-06T23:51:05.250Z,40.33
2019-04-06T23:53:33.762Z,40.21
2019-04-06T23:56:02.805Z,40.29
2019-04-06T23:58:31.426Z,40.29
